Mount Gambier, Australia
Current Conditions -  °F | °C
As of 10:00 AM on Saturday 25 Oct 2014 (Local Time) from YMTG Reporting Station
Broken Clouds Broken Clouds  
Wind Chill: 63°   Ceiling: 1900
Heat Index: 63°   Visibility: 6mi
Dew Point: 50°   Wind: 7mph
Humidity: 63%   Direction: 130°SE
Pressure: 30.03"   Gusts: NA
Location:  37.83°S, 140.78°E
Report Text: YMTG 250000Z AUTO 13006KT 9999 // BKN019 17/10 Q1017
Loading
Personal Weather Stations






























Interactive Weather Map
Tropical Storm Tracking
New forecast layout! Learn more

10-Day Weather Forecast

Advertisements
Track Severe Weather on mobile